createdAt,value
2019-04-22T00:00:17.997Z,13.00
2019-04-22T00:02:51.581Z,13.00
2019-04-22T00:05:41.462Z,13.10
2019-04-22T00:08:10.319Z,13.20
2019-04-22T00:10:48.713Z,13.20
2019-04-22T00:13:18.591Z,13.30
2019-04-22T00:15:42.423Z,13.50
2019-04-22T00:18:28.249Z,13.60
2019-04-22T00:20:54.523Z,13.60
2019-04-22T00:23:21.285Z,13.70
2019-04-22T00:25:56.067Z,13.70
2019-04-22T00:28:25.023Z,13.70
2019-04-22T00:30:57.551Z,13.70
2019-04-22T00:33:24.472Z,13.70
2019-04-22T00:35:55.170Z,13.80
2019-04-22T00:38:33.844Z,13.70
2019-04-22T00:41:00.812Z,13.70
2019-04-22T00:43:35.965Z,13.70
2019-04-22T00:46:02.735Z,13.70
2019-04-22T00:48:38.596Z,13.70
2019-04-22T00:51:05.799Z,13.70
2019-04-22T00:53:36.032Z,13.60
2019-04-22T00:56:13.804Z,13.60
2019-04-22T00:58:41.299Z,13.60
2019-04-22T01:03:50.270Z,13.50
2019-04-22T01:06:17.321Z,13.40
2019-04-22T01:08:53.711Z,13.30
2019-04-22T01:11:23.072Z,13.30
2019-04-22T01:13:49.587Z,13.20
2019-04-22T01:16:23.921Z,13.10
2019-04-22T01:18:49.024Z,12.90
2019-04-22T01:21:28.764Z,12.90
2019-04-22T01:23:52.223Z,12.80
2019-04-22T01:26:21.541Z,12.70
2019-04-22T01:28:50.577Z,12.60
2019-04-22T01:31:17.188Z,12.60
2019-04-22T01:33:49.841Z,12.50
2019-04-22T01:36:32.965Z,12.50
2019-04-22T01:39:02.066Z,12.40
2019-04-22T01:41:48.821Z,12.30
2019-04-22T01:44:27.251Z,12.30
2019-04-22T01:46:45.119Z,12.20
2019-04-22T01:49:15.998Z,12.20
2019-04-22T01:54:26.669Z,12.10
2019-04-22T01:56:47.313Z,12.10
2019-04-22T01:59:11.926Z,12.00
2019-04-22T02:01:53.039Z,12.00
2019-04-22T02:04:30.223Z,11.90
2019-04-22T02:06:50.854Z,11.80
2019-04-22T02:09:31.581Z,11.80
2019-04-22T02:12:00.123Z,11.70
2019-04-22T02:14:27.585Z,11.60
2019-04-22T02:16:55.781Z,11.60
2019-04-22T02:19:30.288Z,11.50
2019-04-22T02:21:56.523Z,11.40
2019-04-22T02:24:33.860Z,11.30
2019-04-22T02:26:54.567Z,11.30
2019-04-22T02:29:37.312Z,11.20
2019-04-22T02:32:12.837Z,11.10
2019-04-22T02:34:40.270Z,11.10
2019-04-22T02:39:43.087Z,11.00
2019-04-22T02:42:10.794Z,11.00
2019-04-22T02:44:42.220Z,11.00
2019-04-22T02:47:15.649Z,10.90
2019-04-22T02:52:19.913Z,10.80
2019-04-22T02:54:49.068Z,10.80
2019-04-22T02:59:57.134Z,10.70
2019-04-22T03:02:23.477Z,10.70
2019-04-22T03:04:43.813Z,10.70
2019-04-22T03:07:16.457Z,10.60
2019-04-22T03:09:52.780Z,10.60
2019-04-22T03:14:56.293Z,10.60
2019-04-22T03:17:38.509Z,10.50
2019-04-22T03:19:59.091Z,10.50
2019-04-22T03:22:21.020Z,10.40
2019-04-22T03:27:21.976Z,10.40
2019-04-22T03:33:06.367Z,10.30
2019-04-22T03:35:30.411Z,10.30
2019-04-22T03:37:48.849Z,10.20
2019-04-22T03:42:52.051Z,10.20
2019-04-22T03:52:47.045Z,10.10
2019-04-22T03:55:49.040Z,10.10
2019-04-22T03:57:49.654Z,10.00
2019-04-22T04:02:54.257Z,10.00
2019-04-22T04:05:33.576Z,10.00
2019-04-22T04:20:36.502Z,9.80
2019-04-22T04:23:07.955Z,9.80
2019-04-22T04:30:31.760Z,9.80
2019-04-22T04:33:29.158Z,9.80
2019-04-22T04:35:54.484Z,9.80
2019-04-22T04:38:19.094Z,9.80
2019-04-22T04:40:46.109Z,9.80
2019-04-22T04:45:45.087Z,9.70
2019-04-22T04:48:26.804Z,9.80
2019-04-22T04:50:47.394Z,9.70
2019-04-22T04:55:57.937Z,9.80
2019-04-22T04:58:36.707Z,9.80
2019-04-22T05:03:32.937Z,9.80
2019-04-22T05:05:54.718Z,9.90
2019-04-22T05:08:39.114Z,9.90
2019-04-22T05:13:23.436Z,10.00
2019-04-22T05:16:14.837Z,10.00
2019-04-22T05:18:35.095Z,10.10
2019-04-22T05:23:30.064Z,10.20
2019-04-22T05:25:57.651Z,10.30
2019-04-22T05:28:23.705Z,10.40
2019-04-22T05:31:05.146Z,10.50
2019-04-22T05:33:32.318Z,10.60
2019-04-22T05:36:01.561Z,10.70
2019-04-22T05:38:37.912Z,10.80
2019-04-22T05:41:02.779Z,10.90
2019-04-22T05:43:34.468Z,11.00
2019-04-22T05:46:05.707Z,11.10
2019-04-22T05:48:41.069Z,11.20
2019-04-22T05:51:04.496Z,11.40
2019-04-22T05:53:37.646Z,11.50
2019-04-22T05:56:15.442Z,11.60
2019-04-22T05:58:39.701Z,11.70
2019-04-22T06:03:46.083Z,12.00
2019-04-22T06:06:15.048Z,12.20
2019-04-22T06:08:48.716Z,12.30
2019-04-22T06:13:46.620Z,12.60
2019-04-22T06:16:26.378Z,12.70
2019-04-22T06:18:58.299Z,12.80
2019-04-22T06:24:08.271Z,13.10
2019-04-22T06:26:40.615Z,13.20
2019-04-22T06:29:01.525Z,13.40
2019-04-22T06:36:37.424Z,13.70
2019-04-22T06:39:10.430Z,13.80
2019-04-22T06:41:45.834Z,13.90
2019-04-22T06:44:10.996Z,14.00
2019-04-22T06:46:43.335Z,14.10
2019-04-22T06:49:11.209Z,14.20
2019-04-22T06:51:37.732Z,14.40
2019-04-22T06:54:14.097Z,14.50
2019-04-22T06:56:42.714Z,14.60
2019-04-22T06:59:14.721Z,14.70
2019-04-22T07:01:50.934Z,14.80
2019-04-22T07:04:14.467Z,14.90
2019-04-22T07:06:49.914Z,15.00
2019-04-22T07:09:31.533Z,15.00
2019-04-22T07:11:50.013Z,15.10
2019-04-22T07:14:16.401Z,15.20
2019-04-22T07:16:54.468Z,15.30
2019-04-22T07:19:21.880Z,15.40
2019-04-22T07:21:50.935Z,15.50
2019-04-22T07:26:57.608Z,15.70
2019-04-22T07:29:29.711Z,15.80
2019-04-22T07:32:01.144Z,15.90
2019-04-22T07:34:33.358Z,16.10
2019-04-22T07:37:10.974Z,16.20
2019-04-22T07:39:35.470Z,16.30
2019-04-22T07:42:10.766Z,16.40
2019-04-22T07:47:13.786Z,16.70
2019-04-22T07:49:41.189Z,16.80
2019-04-22T07:52:03.633Z,17.00
2019-04-22T07:54:42.824Z,17.10
2019-04-22T07:57:16.485Z,17.30
2019-04-22T07:59:40.497Z,17.40
2019-04-22T08:02:12.784Z,17.60
2019-04-22T08:04:56.124Z,17.70
2019-04-22T08:07:18.077Z,17.90
2019-04-22T08:09:51.001Z,18.00
2019-04-22T08:12:16.671Z,18.20
2019-04-22T08:14:45.909Z,18.30
2019-04-22T08:17:53.291Z,18.50
2019-04-22T08:19:50.165Z,18.70
2019-04-22T08:22:24.098Z,18.90
2019-04-22T08:24:58.611Z,19.00
2019-04-22T08:27:25.210Z,19.10
2019-04-22T08:30:07.410Z,19.30
2019-04-22T08:32:28.505Z,19.40
2019-04-22T08:35:00.614Z,19.50
2019-04-22T08:40:09.537Z,19.70
2019-04-22T08:42:43.521Z,19.80
2019-04-22T08:45:09.603Z,20.00
2019-04-22T08:50:07.744Z,20.30
2019-04-22T08:52:38.506Z,20.40
2019-04-22T08:55:14.354Z,20.40
2019-04-22T08:58:03.233Z,20.50
2019-04-22T09:00:07.050Z,20.60
2019-04-22T09:05:22.800Z,20.80
2019-04-22T09:07:47.112Z,20.80
2019-04-22T09:10:17.260Z,21.00
2019-04-22T09:13:01.056Z,21.10
2019-04-22T09:15:20.600Z,21.30
2019-04-22T09:17:47.896Z,21.40
2019-04-22T09:20:23.385Z,21.40
2019-04-22T09:22:53.723Z,21.50
2019-04-22T09:25:16.950Z,21.60
2019-04-22T09:27:51.166Z,21.60
2019-04-22T09:30:27.774Z,21.70
2019-04-22T09:32:55.742Z,21.80
2019-04-22T09:35:25.125Z,21.90
2019-04-22T09:40:22.331Z,22.10
2019-04-22T09:42:56.391Z,22.20
2019-04-22T09:45:43.659Z,22.30
2019-04-22T09:48:00.930Z,22.30
2019-04-22T09:50:38.483Z,22.40
2019-04-22T09:53:02.090Z,22.50
2019-04-22T09:55:37.681Z,22.50
2019-04-22T09:58:07.207Z,22.60
2019-04-22T10:00:45.844Z,22.60
2019-04-22T10:03:16.743Z,22.70
2019-04-22T10:05:52.125Z,22.70
2019-04-22T10:08:24.514Z,22.80
2019-04-22T10:10:51.606Z,22.80
2019-04-22T10:13:18.743Z,22.90
2019-04-22T10:15:48.059Z,23.00
2019-04-22T10:18:17.872Z,23.00
2019-04-22T10:20:54.126Z,23.00
2019-04-22T10:23:25.013Z,23.10
2019-04-22T10:25:59.444Z,23.00
2019-04-22T10:28:35.582Z,23.10
2019-04-22T10:30:53.478Z,23.10
2019-04-22T10:33:22.412Z,23.20
2019-04-22T10:35:32.990Z,23.30
2019-04-22T10:38:03.941Z,23.30
2019-04-22T10:40:34.716Z,23.40
2019-04-22T10:43:07.704Z,23.40
2019-04-22T10:45:37.697Z,23.40
2019-04-22T10:48:08.497Z,23.50
2019-04-22T10:50:43.025Z,23.50
2019-04-22T10:53:13.578Z,23.50
2019-04-22T10:55:45.660Z,23.60
2019-04-22T10:58:16.948Z,23.70
2019-04-22T11:00:47.372Z,23.70
2019-04-22T11:03:18.074Z,23.70
2019-04-22T11:05:48.413Z,23.80
2019-04-22T11:08:27.280Z,23.80
2019-04-22T11:11:04.828Z,23.80
2019-04-22T11:13:22.234Z,23.90
2019-04-22T11:15:52.973Z,24.00
2019-04-22T11:18:23.209Z,24.00
2019-04-22T11:20:53.565Z,24.10
2019-04-22T11:23:22.945Z,24.10
2019-04-22T11:25:52.224Z,24.20
2019-04-22T11:28:21.533Z,24.20
2019-04-22T11:30:52.258Z,24.30
2019-04-22T11:33:22.526Z,24.40
2019-04-22T11:35:52.156Z,24.40
2019-04-22T11:38:22.684Z,24.50
2019-04-22T11:40:54.377Z,24.50
2019-04-22T11:43:24.172Z,24.60
2019-04-22T11:45:55.321Z,24.70
2019-04-22T11:48:24.652Z,24.80
2019-04-22T11:50:53.920Z,24.90
2019-04-22T11:53:24.722Z,25.00
2019-04-22T11:55:55.062Z,25.00
2019-04-22T11:58:24.705Z,25.10
2019-04-22T12:00:55.458Z,25.20
2019-04-22T12:03:27.177Z,25.30
2019-04-22T12:05:57.794Z,25.40
2019-04-22T12:08:27.212Z,25.50
2019-04-22T12:11:00.065Z,25.50
2019-04-22T12:13:28.266Z,25.70
2019-04-22T12:15:58.852Z,25.70
2019-04-22T12:18:29.150Z,25.70
2019-04-22T12:20:59.205Z,25.80
2019-04-22T12:23:29.408Z,25.90
2019-04-22T12:26:04.264Z,25.90
2019-04-22T12:28:31.080Z,26.00
2019-04-22T12:31:01.660Z,26.20
2019-04-22T12:33:31.646Z,26.30
2019-04-22T12:36:02.282Z,26.40
2019-04-22T12:38:31.671Z,26.50
2019-04-22T12:41:05.823Z,26.60
2019-04-22T12:43:33.347Z,26.70
2019-04-22T12:46:02.857Z,26.80
2019-04-22T12:48:32.862Z,26.90
2019-04-22T12:51:02.942Z,27.00
2019-04-22T12:53:33.620Z,27.20
2019-04-22T12:56:03.193Z,27.50
2019-04-22T12:58:33.756Z,27.90
2019-04-22T13:01:03.383Z,28.20
2019-04-22T13:03:34.024Z,28.50
2019-04-22T13:06:05.913Z,28.70
2019-04-22T13:08:35.795Z,28.90
2019-04-22T13:11:11.986Z,29.10
2019-04-22T13:13:36.827Z,29.20
2019-04-22T13:16:07.011Z,29.30
2019-04-22T13:18:42.041Z,29.30
2019-04-22T13:21:08.597Z,29.30
2019-04-22T13:23:39.027Z,29.40
2019-04-22T13:26:08.414Z,29.50
2019-04-22T13:28:38.871Z,29.50
2019-04-22T13:31:09.681Z,29.60
2019-04-22T13:33:39.097Z,29.70
2019-04-22T13:36:08.375Z,29.80
2019-04-22T13:38:39.026Z,29.90
2019-04-22T13:41:21.284Z,30.10
2019-04-22T13:43:39.657Z,30.10
2019-04-22T13:46:10.240Z,30.40
2019-04-22T13:49:13.185Z,30.60
2019-04-22T13:51:52.139Z,30.80
2019-04-22T13:54:42.350Z,31.00
2019-04-22T13:56:30.396Z,31.20
2019-04-22T13:58:55.292Z,31.30
2019-04-22T14:01:20.553Z,31.40
2019-04-22T14:03:54.643Z,31.50
2019-04-22T14:06:25.062Z,31.70
2019-04-22T14:08:55.685Z,31.80
2019-04-22T14:11:34.571Z,31.90
2019-04-22T14:13:56.732Z,31.90
2019-04-22T14:16:27.015Z,31.90
2019-04-22T14:18:57.991Z,32.00
2019-04-22T14:21:27.416Z,32.10
2019-04-22T14:23:56.681Z,32.30
2019-04-22T14:26:27.229Z,32.30
2019-04-22T14:28:59.832Z,32.20
2019-04-22T14:31:30.586Z,32.10
2019-04-22T14:34:04.987Z,32.20
2019-04-22T14:36:31.046Z,32.40
2019-04-22T14:39:01.909Z,32.20
2019-04-22T14:41:49.766Z,32.20
2019-04-22T14:45:07.174Z,32.20
2019-04-22T14:47:05.566Z,32.20
2019-04-22T14:49:31.456Z,32.20
2019-04-22T14:51:56.039Z,32.20
2019-04-22T14:54:24.242Z,32.20
2019-04-22T14:56:40.412Z,32.00
2019-04-22T14:59:11.289Z,31.80
2019-04-22T15:01:41.572Z,31.70
2019-04-22T15:04:10.991Z,31.70
2019-04-22T15:06:43.114Z,31.80
2019-04-22T15:09:12.197Z,31.90
2019-04-22T15:11:50.749Z,32.00
2019-04-22T15:14:12.633Z,32.10
2019-04-22T15:16:49.024Z,32.20
2019-04-22T15:19:25.687Z,32.20
2019-04-22T15:21:56.633Z,32.10
2019-04-22T15:24:27.563Z,32.00
2019-04-22T15:26:58.565Z,31.90
2019-04-22T15:29:29.415Z,31.80
2019-04-22T15:31:59.943Z,31.70
2019-04-22T15:34:30.656Z,31.70
2019-04-22T15:37:00.174Z,31.70
2019-04-22T15:39:29.529Z,31.70
2019-04-22T15:42:11.341Z,31.80
2019-04-22T15:44:30.741Z,31.70
2019-04-22T15:47:00.915Z,31.70
2019-04-22T15:49:31.892Z,31.70
2019-04-22T15:52:02.981Z,31.60
2019-04-22T15:54:33.976Z,31.50
2019-04-22T15:57:04.763Z,31.30
2019-04-22T15:59:52.645Z,31.20
2019-04-22T16:02:08.317Z,31.10
2019-04-22T16:04:38.785Z,31.00
2019-04-22T16:07:08.597Z,31.00
2019-04-22T16:09:39.372Z,31.00
2019-04-22T16:12:18.591Z,31.00
2019-04-22T16:14:45.438Z,30.90
2019-04-22T16:17:10.709Z,30.80
2019-04-22T16:19:41.171Z,30.70
2019-04-22T16:22:17.092Z,30.60
2019-04-22T16:24:56.272Z,30.50
2019-04-22T16:27:27.338Z,30.30
2019-04-22T16:29:57.152Z,30.10
2019-04-22T16:32:27.838Z,30.00
2019-04-22T16:34:58.688Z,29.70
2019-04-22T16:37:28.529Z,29.50
2019-04-22T16:39:58.899Z,29.20
2019-04-22T16:42:37.842Z,28.90
2019-04-22T16:44:59.641Z,28.90
2019-04-22T16:47:28.923Z,28.90
2019-04-22T16:49:59.496Z,28.80
2019-04-22T16:52:30.145Z,28.80
2019-04-22T16:55:00.889Z,28.80
2019-04-22T16:57:30.281Z,28.70
2019-04-22T17:00:00.448Z,28.50
2019-04-22T17:02:41.725Z,28.40
2019-04-22T17:05:18.034Z,28.30
2019-04-22T17:07:48.076Z,28.20
2019-04-22T17:10:17.835Z,28.00
2019-04-22T17:12:56.352Z,27.90
2019-04-22T17:15:20.741Z,27.80
2019-04-22T17:17:51.497Z,27.60
2019-04-22T17:20:21.081Z,27.40
2019-04-22T17:22:51.467Z,27.20
2019-04-22T17:25:22.367Z,27.00
2019-04-22T17:27:52.030Z,26.90
2019-04-22T17:30:22.272Z,26.80
2019-04-22T17:32:52.464Z,26.60
2019-04-22T17:35:22.133Z,26.50
2019-04-22T17:38:03.066Z,26.40
2019-04-22T17:40:40.856Z,26.30
2019-04-22T17:43:28.477Z,26.20
2019-04-22T17:45:56.030Z,26.10
2019-04-22T17:48:30.388Z,25.90
2019-04-22T17:51:14.532Z,25.90
2019-04-22T17:53:42.575Z,25.80
2019-04-22T17:56:09.684Z,25.70
2019-04-22T17:58:43.111Z,25.60
2019-04-22T18:01:10.732Z,25.40
2019-04-22T18:03:28.541Z,25.40
2019-04-22T18:05:58.225Z,25.20
2019-04-22T18:08:44.241Z,25.10
2019-04-22T18:11:24.288Z,25.00
2019-04-22T18:13:44.603Z,24.80
2019-04-22T18:16:18.125Z,24.60
2019-04-22T18:18:47.634Z,24.50
2019-04-22T18:21:15.709Z,24.30
2019-04-22T18:23:36.104Z,24.20
2019-04-22T18:26:17.081Z,24.10
2019-04-22T18:28:55.912Z,23.90
2019-04-22T18:31:15.758Z,23.80
2019-04-22T18:33:47.872Z,23.60
2019-04-22T18:36:21.268Z,23.50
2019-04-22T18:38:58.493Z,23.40
2019-04-22T18:41:23.703Z,23.20
2019-04-22T18:47:10.719Z,22.90
2019-04-22T18:49:38.671Z,22.80
2019-04-22T18:52:19.576Z,22.50
2019-04-22T18:54:53.508Z,22.40
2019-04-22T18:57:25.643Z,22.30
2019-04-22T18:59:43.273Z,22.20
2019-04-22T19:02:14.214Z,22.10
2019-04-22T19:04:53.930Z,22.00
2019-04-22T19:07:44.287Z,21.90
2019-04-22T19:10:09.615Z,21.80
2019-04-22T19:12:47.056Z,21.70
2019-04-22T19:15:09.374Z,21.70
2019-04-22T19:17:46.285Z,21.60
2019-04-22T19:20:16.970Z,21.50
2019-04-22T19:22:43.775Z,21.40
2019-04-22T19:25:05.927Z,21.30
2019-04-22T19:27:42.173Z,21.20
2019-04-22T19:30:16.453Z,21.10
2019-04-22T19:32:45.176Z,21.00
2019-04-22T19:35:14.071Z,20.90
2019-04-22T19:37:44.209Z,20.80
2019-04-22T19:40:30.339Z,20.80
2019-04-22T19:42:58.023Z,20.70
2019-04-22T19:45:16.031Z,20.60
2019-04-22T19:47:59.896Z,20.50
2019-04-22T19:50:22.742Z,20.40
2019-04-22T19:52:50.315Z,20.30
2019-04-22T19:55:23.805Z,20.20
2019-04-22T19:57:52.324Z,20.20
2019-04-22T20:00:37.388Z,20.10
2019-04-22T20:03:37.750Z,20.00
2019-04-22T20:06:18.105Z,20.00
2019-04-22T20:08:50.987Z,19.90
2019-04-22T20:11:22.652Z,19.80
2019-04-22T20:13:51.349Z,19.70
2019-04-22T20:16:08.585Z,19.60
2019-04-22T20:18:56.968Z,19.60
2019-04-22T20:21:24.005Z,19.50
2019-04-22T20:23:45.295Z,19.40
2019-04-22T20:26:17.895Z,19.30
2019-04-22T20:28:55.882Z,19.30
2019-04-22T20:31:26.616Z,19.20
2019-04-22T20:34:03.540Z,19.10
2019-04-22T20:38:58.787Z,18.90
2019-04-22T20:41:24.949Z,18.90
2019-04-22T20:44:08.007Z,18.70
2019-04-22T20:46:31.322Z,18.70
2019-04-22T20:49:04.921Z,18.60
2019-04-22T20:51:48.750Z,18.60
2019-04-22T20:54:08.873Z,18.50
2019-04-22T20:56:33.771Z,18.40
2019-04-22T20:59:08.696Z,18.40
2019-04-22T21:01:41.434Z,18.30
2019-04-22T21:03:57.638Z,18.20
2019-04-22T21:06:36.943Z,18.20
2019-04-22T21:09:12.089Z,18.10
2019-04-22T21:11:40.888Z,18.10
2019-04-22T21:14:12.244Z,18.00
2019-04-22T21:16:43.396Z,17.90
2019-04-22T21:19:21.682Z,17.90
2019-04-22T21:21:54.737Z,17.80
2019-04-22T21:24:19.646Z,17.70
2019-04-22T21:26:43.730Z,17.70
2019-04-22T21:29:15.893Z,17.60
2019-04-22T21:31:51.286Z,17.50
2019-04-22T21:34:22.263Z,17.50
2019-04-22T21:36:57.466Z,17.40
2019-04-22T21:39:23.099Z,17.40
2019-04-22T21:41:56.658Z,17.30
2019-04-22T21:44:26.905Z,17.30
2019-04-22T21:47:08.652Z,17.20
2019-04-22T21:49:35.560Z,17.20
2019-04-22T21:52:01.630Z,17.10
2019-04-22T21:54:31.566Z,17.10
2019-04-22T21:57:26.529Z,17.00
2019-04-22T21:59:38.483Z,17.00
2019-04-22T22:02:12.296Z,16.90
2019-04-22T22:04:38.441Z,16.90
2019-04-22T22:06:59.890Z,16.80
2019-04-22T22:09:43.979Z,16.80
2019-04-22T22:12:14.810Z,16.70
2019-04-22T22:14:46.373Z,16.70
2019-04-22T22:17:18.826Z,16.60
2019-04-22T22:19:48.526Z,16.60
2019-04-22T22:22:40.137Z,16.50
2019-04-22T22:24:50.154Z,16.50
2019-04-22T22:27:19.006Z,16.40
2019-04-22T22:32:27.447Z,16.30
2019-04-22T22:35:00.527Z,16.30
2019-04-22T22:37:15.884Z,16.30
2019-04-22T22:39:44.897Z,16.20
2019-04-22T22:42:10.908Z,16.20
2019-04-22T22:44:44.860Z,16.10
2019-04-22T22:47:34.238Z,16.10
2019-04-22T22:50:03.037Z,16.00
2019-04-22T22:55:03.849Z,16.00
2019-04-22T23:00:04.526Z,15.90
2019-04-22T23:02:36.879Z,15.90
2019-04-22T23:05:09.669Z,15.80
2019-04-22T23:07:40.950Z,15.80
2019-04-22T23:10:14.531Z,15.70
2019-04-22T23:13:00.482Z,15.70
2019-04-22T23:15:12.373Z,15.60
2019-04-22T23:17:26.213Z,15.60
2019-04-22T23:19:56.014Z,15.60
2019-04-22T23:22:35.643Z,15.50
2019-04-22T23:25:24.787Z,15.50
2019-04-22T23:27:52.580Z,15.40
2019-04-22T23:30:25.458Z,15.40
2019-04-22T23:33:07.800Z,15.40
2019-04-22T23:35:36.363Z,15.30
2019-04-22T23:38:07.813Z,15.30
2019-04-22T23:40:42.888Z,15.20
2019-04-22T23:43:26.382Z,15.20
2019-04-22T23:45:51.978Z,15.10
2019-04-22T23:48:14.144Z,15.10
2019-04-22T23:50:57.347Z,15.10
2019-04-22T23:53:45.195Z,15.00
2019-04-22T23:56:01.258Z,15.00
2019-04-22T23:58:49.263Z,14.90
